createdAt,value
2022-10-31T17:26:59.180Z,69.40
2022-10-31T17:29:26.049Z,69.00
2022-10-31T17:31:52.860Z,68.90
2022-10-31T17:34:19.631Z,68.90
2022-10-31T17:36:51.083Z,69.10
2022-10-31T17:39:18.456Z,69.20
2022-10-31T17:41:45.329Z,69.30
2022-10-31T17:44:12.268Z,69.30
2022-10-31T17:46:39.250Z,69.30
2022-10-31T17:49:07.574Z,69.40
2022-10-31T17:51:34.401Z,69.60
2022-10-31T17:54:01.254Z,70.00
2022-10-31T17:56:28.113Z,70.10
2022-10-31T17:58:57.205Z,70.10
2022-10-31T18:01:24.155Z,70.30
2022-10-31T18:03:51.021Z,70.40
2022-10-31T18:06:17.931Z,70.50
2022-10-31T18:08:44.823Z,70.40
2022-10-31T18:11:16.895Z,70.50
2022-10-31T18:13:43.706Z,70.60
2022-10-31T18:16:11.960Z,70.60
2022-10-31T18:18:38.919Z,71.10
2022-10-31T18:21:06.016Z,71.00
2022-10-31T18:23:32.923Z,70.90
2022-10-31T18:25:59.766Z,70.60
2022-10-31T18:28:26.617Z,70.60
2022-10-31T18:30:53.436Z,70.40
2022-10-31T18:33:20.307Z,70.30
2022-10-31T18:35:47.183Z,70.00
2022-10-31T18:38:14.007Z,70.00
2022-10-31T18:40:40.820Z,69.90
2022-10-31T18:43:07.685Z,69.80
2022-10-31T18:45:46.669Z,69.40
2022-10-31T18:48:14.605Z,69.00
2022-10-31T18:50:41.698Z,68.70
2022-10-31T18:53:08.687Z,68.60
2022-10-31T18:55:41.547Z,68.60
2022-10-31T18:58:11.027Z,68.70
2022-10-31T19:00:38.736Z,68.70
2022-10-31T19:03:06.011Z,68.70
2022-10-31T19:05:32.829Z,68.90
2022-10-31T19:07:59.606Z,69.30
2022-10-31T19:10:26.429Z,69.40
2022-10-31T19:12:53.218Z,69.40
2022-10-31T19:15:20.032Z,69.30
2022-10-31T19:17:46.831Z,69.30
2022-10-31T19:20:14.266Z,69.50
2022-10-31T19:22:41.046Z,69.40
2022-10-31T19:25:10.666Z,69.50
2022-10-31T19:27:38.157Z,69.60
2022-10-31T19:30:05.600Z,69.80
2022-10-31T19:32:32.453Z,69.70
2022-10-31T19:34:59.217Z,69.80
2022-10-31T19:37:25.999Z,69.80
2022-10-31T19:39:52.851Z,70.00
2022-10-31T19:42:19.869Z,70.00
2022-10-31T19:44:46.618Z,70.00
2022-10-31T19:47:13.451Z,70.10
2022-10-31T19:49:40.189Z,70.20
2022-10-31T19:52:06.956Z,70.30
2022-10-31T19:55:05.609Z,69.90
2022-10-31T19:57:56.574Z,70.10
2022-10-31T20:00:20.727Z,70.30
2022-10-31T20:02:47.587Z,70.60
2022-10-31T20:05:14.399Z,70.70
2022-10-31T20:07:41.180Z,70.80
2022-10-31T20:10:08.920Z,62.80
2022-10-31T20:12:35.893Z,62.40
2022-10-31T20:15:02.664Z,62.40
2022-10-31T20:17:29.469Z,62.90
2022-10-31T20:19:56.582Z,63.00
2022-10-31T20:22:23.411Z,63.20
2022-10-31T20:24:50.184Z,63.40
2022-10-31T20:27:16.945Z,63.40
2022-10-31T20:29:43.693Z,63.60
2022-10-31T20:32:10.551Z,63.60
2022-10-31T20:34:37.498Z,64.20
2022-10-31T20:37:04.545Z,64.40
2022-10-31T20:39:32.242Z,64.40
2022-10-31T20:41:59.048Z,64.60
2022-10-31T20:44:25.877Z,64.70
2022-10-31T20:46:53.323Z,64.70
2022-10-31T20:49:20.169Z,64.90
